Marion, IN

8:34 PM EST on January 25, 2015 (GMT -0500)
Kokomo Municipal | Change Station
CLOSE
Current Station
Airport
Location: Kokomo,
Elevation: 830 ft
Nearby Weather Stations
Active Advisory: Winter Weather Advisory Active Notice: Public Information Statement

Elev 830 ft 40.53 °N, 86.06 °W | Updated 19 minutes ago

Snow
Snow
23 °F
Feels Like 9 °F
N
18
Wind Variable Wind from ENE

Today
High -- | Low -- °F
--% Chance of Precip.
Yesterday
High -- | Low -- °F
Precip. -- in
7:58 AM 5:51 PM
Waxing Crescent, 37% visible
Pressure 29.85 in
Visibility 2.5 miles
Clouds Few 1200 ft
Mostly Cloudy 1800 ft
Overcast 2900 ft
Windchill 9 °F
Dew Point 18 °F
Humidity 80%
Rainfall 0.42 in
Snow Depth Not available.
UV 0 out of 12
Pollen .10 out of 12
Air Quality Not available.
Flu Activity Not available.
METAR KOKK 260115Z AUTO 06016KT 2 1/2SM FEW012 BKN018 OVC029 M05/M08 A2985 RMK AO1

More Conditions Fewer Conditions

Pressure 29.85 in
Visibility 2.5 miles
Clouds Few 1200 ft
Mostly Cloudy 1800 ft
Overcast 2900 ft
Windchill 9 °F
Dew Point 18 °F
Humidity 80%
Rainfall 0.42 in
Snow Depth Not available.
UV 0 out of 12
Pollen .10 out of 12
Air Quality Not available.
Flu Activity Not available.
METAR KOKK 260115Z AUTO 06016KT 2 1/2SM FEW012 BKN018 OVC029 M05/M08 A2985 RMK AO1

More Conditions Fewer Conditions

10-Day Weather Forecast

Almanac

Astronomy

Jan. 25, 2015 Rise Set
Actual Time
Civil Twilight
Nautical Twilight
Astronomical Twilight
Moon
Length of Visible Light
Length of Day
Tomorrow will be .
, % of the Moon is Illuminated

Today's Extremes

State Highs State Lows

Community

WunderPhotos

Upload Photos

1,790,039 photos uploaded!

WunderBlogs® & News

Nearby

Air Quality

  Air Quality AQ Index Pollutant
Not available.

Snow Depth

Station Depth Elevation

Earthquake Activity

City Distance Mag. Time & Date
Minimum magnitude displayed is 2.5.

Coastal Water Temperatures

Place Temperature

Nearby Weather Stations